Time;durP1;ratioP1;P1;durP2;ratioP2;P2;SDS_P1;SDS_P2;PMS_P1;PMS_P2;Temp;Humidity;BMP_temperature;BMP_pressure;BME280_temperature;BME280_humidity;BME280_pressure;Samples;Min_cycle;Max_cycle;Signal;HPM_P1;HPM_P2
2022/06/30 00:00:34;;;;;;;4.68;3.40;;;20.70;99.90;;;;;;6166127;23;20020;-88
2022/06/30 00:03:03;;;;;;;6.70;3.40;;;;;;;;;;6167263;23;20036;-90
2022/06/30 00:05:42;;;;;;;6.63;3.38;;;20.20;99.90;;;;;;6167093;23;20076;-87
2022/06/30 00:08:16;;;;;;;6.35;3.50;;;19.30;99.90;;;;;;6169913;23;20468;-88
2022/06/30 00:10:54;;;;;;;5.18;3.50;;;20.10;99.90;;;;;;6166980;23;20013;-89
2022/06/30 00:13:24;;;;;;;7.30;3.80;;;20.10;99.90;;;;;;6193745;23;20337;-89
2022/06/30 00:15:50;;;;;;;18.90;12.13;;;;;;;;;;6194202;23;20042;-90
2022/06/30 00:18:48;;;;;;;6.90;3.72;;;20.00;99.90;;;;;;6137653;23;20017;-87
2022/06/30 00:21:43;;;;;;;7.43;4.63;;;19.90;99.90;;;;;;6192910;23;20020;-89
2022/06/30 00:24:11;;;;;;;8.32;4.13;;;;;;;;;;6187396;23;20482;-87
2022/06/30 00:26:47;;;;;;;6.32;3.97;;;19.80;99.90;;;;;;6193984;23;20077;-87
2022/06/30 00:29:21;;;;;;;5.95;3.50;;;19.70;99.90;;;;;;6142483;23;20013;-87
2022/06/30 00:31:56;;;;;;;7.43;4.47;;;19.70;99.90;;;;;;6190888;23;19997;-88
2022/06/30 00:34:27;;;;;;;7.38;3.83;;;19.60;99.90;;;;;;6165348;23;20001;-87
2022/06/30 00:37:00;;;;;;;9.35;4.88;;;19.60;99.90;;;;;;6166904;23;20495;-90
2022/06/30 00:40:00;;;;;;;4.63;3.17;;;19.70;99.90;;;;;;6188567;23;20009;-88
2022/06/30 00:42:34;;;;;;;6.88;4.47;;;19.60;99.90;;;;;;6194567;23;20005;-87
2022/06/30 00:45:07;;;;;;;7.45;3.83;;;19.60;99.90;;;;;;6169071;23;20009;-87
2022/06/30 00:47:34;;;;;;;4.97;3.15;;;;;;;;;;6196601;23;20059;-88
2022/06/30 00:50:08;;;;;;;7.63;3.95;;;19.60;99.90;;;;;;6197007;23;20019;-88
2022/06/30 00:52:40;;;;;;;5.57;3.55;;;19.60;99.90;;;;;;6151654;23;20064;-87
2022/06/30 00:55:27;;;;;;;7.80;4.38;;;19.50;99.90;;;;;;6175975;23;20084;-87
2022/06/30 00:57:56;;;;;;;9.13;3.85;;;19.50;99.90;;;;;;6196528;23;20147;-90
2022/06/30 01:00:29;;;;;;;6.95;4.10;;;19.40;99.90;;;;;;6168114;23;20024;-88
2022/06/30 01:03:01;;;;;;;5.68;3.88;;;19.40;99.90;;;;;;6168129;23;20009;-90
2022/06/30 01:05:28;;;;;;;9.27;4.78;;;;;;;;;;6168343;23;20063;-89
2022/06/30 01:08:00;;;;;;;9.25;5.13;;;19.30;99.90;;;;;;6196495;23;20008;-90
2022/06/30 04:21:39;;;;;;;9.38;6.90;;;18.00;99.90;;;;;;6186138;23;20076;-82
2022/06/30 04:24:06;;;;;;;9.15;6.47;;;15.80;99.90;;;;;;6205893;23;20013;-84
2022/06/30 04:26:32;;;;;;;4.90;3.92;;;17.70;99.90;;;;;;6188496;23;20011;-81
2022/06/30 04:28:58;;;;;;;7.30;4.60;;;16.00;99.90;;;;;;6211390;23;20008;-80
2022/06/30 04:34:08;;;;;;;6.28;3.90;;;16.70;99.90;;;;;;6187223;23;20012;-79
2022/06/30 04:36:35;;;;;;;5.07;4.10;;;17.70;99.90;;;;;;6188494;23;20008;-81
2022/06/30 04:39:43;;;;;;;7.32;3.95;;;17.60;99.90;;;;;;6189490;23;20055;-83
2022/06/30 04:42:33;;;;;;;5.28;3.70;;;17.60;99.90;;;;;;6191686;23;20020;-82
2022/06/30 04:45:01;;;;;;;6.70;3.80;;;17.60;99.90;;;;;;6190663;23;20013;-81
2022/06/30 04:47:28;;;;;;;6.22;4.00;;;16.40;99.90;;;;;;6190922;23;20005;-81
2022/06/30 04:49:58;;;;;;;9.07;4.10;;;17.80;99.90;;;;;;6192002;23;20029;-81
2022/06/30 04:52:26;;;;;;;7.28;3.78;;;17.80;99.90;;;;;;6191289;23;20005;-82
2022/06/30 04:54:54;;;;;;;6.82;4.43;;;17.80;99.90;;;;;;6165833;23;20447;-82
2022/06/30 04:57:21;;;;;;;9.15;4.38;;;;;;;;;;6167909;23;20005;-82
2022/06/30 04:59:48;;;;;;;9.13;4.50;;;18.00;99.90;;;;;;6192575;23;20005;-82
2022/06/30 05:02:15;;;;;;;5.90;4.38;;;;;;;;;;6196415;23;20040;-82
2022/06/30 05:04:45;;;;;;;8.20;4.40;;;18.10;99.90;;;;;;6201932;23;20009;-84
2022/06/30 05:07:13;;;;;;;7.72;4.75;;;18.00;99.90;;;;;;6225300;23;20005;-82
2022/06/30 05:09:42;;;;;;;7.55;4.85;;;20.00;99.90;;;;;;6192680;23;20317;-81
2022/06/30 05:12:09;;;;;;;6.70;4.65;;;18.40;99.90;;;;;;6188720;23;20009;-80
2022/06/30 05:14:35;;;;;;;6.35;4.28;;;18.50;99.90;;;;;;6186833;23;20036;-81
2022/06/30 05:17:01;;;;;;;7.78;4.53;;;;;;;;;;6185295;23;20511;-83
2022/06/30 05:19:29;;;;;;;7.82;4.50;;;18.60;99.90;;;;;;6187389;23;20005;-79
2022/06/30 05:21:55;;;;;;;8.30;4.93;;;;;;;;;;6217792;23;20005;-79
2022/06/30 05:27:12;;;;;;;9.82;4.00;;;;;;;;;;6198219;23;20040;-81
2022/06/30 05:29:38;;;;;;;5.65;4.00;;;;;;;;;;6218826;23;20027;-81
2022/06/30 05:32:05;;;;;;;6.70;4.32;;;22.30;99.90;;;;;;6189868;23;20008;-82
2022/06/30 05:34:30;;;;;;;6.55;3.75;;;23.20;99.90;;;;;;6219979;23;20030;-82
2022/06/30 05:36:56;;;;;;;10.00;4.22;;;23.90;99.90;;;;;;6216988;23;20009;-81
2022/06/30 05:39:22;;;;;;;6.40;3.70;;;24.50;99.90;;;;;;6216180;23;20483;-82
2022/06/30 05:41:47;;;;;;;7.70;4.10;;;24.80;99.30;;;;;;6218496;23;20008;-82
2022/06/30 05:44:13;;;;;;;6.93;3.88;;;24.70;98.80;;;;;;6216641;23;20004;-82
2022/06/30 05:46:39;;;;;;;9.00;4.38;;;24.80;99.10;;;;;;6215844;23;20004;-82
2022/06/30 05:49:06;;;;;;;7.03;4.63;;;25.10;98.60;;;;;;6218110;23;20306;-82
2022/06/30 05:51:32;;;;;;;9.88;4.65;;;25.30;98.20;;;;;;6218606;23;20083;-83
2022/06/30 05:53:58;;;;;;;7.50;4.63;;;26.10;96.50;;;;;;6194104;23;20007;-85
2022/06/30 05:56:23;;;;;;;7.55;4.13;;;26.10;96.30;;;;;;6218391;23;20005;-82
2022/06/30 05:58:49;;;;;;;13.07;4.57;;;26.50;95.20;;;;;;6219512;23;20008;-82
2022/06/30 06:01:15;;;;;;;10.30;4.80;;;26.10;95.40;;;;;;6217040;23;20375;-81
2022/06/30 06:03:40;;;;;;;6.55;3.80;;;26.30;95.30;;;;;;6215075;23;20312;-81
2022/06/30 06:06:06;;;;;;;7.07;4.03;;;26.50;94.90;;;;;;6215482;23;20016;-85
2022/06/30 06:08:31;;;;;;;9.90;4.15;;;26.30;94.90;;;;;;6216101;23;20009;-84
2022/06/30 06:10:57;;;;;;;6.03;3.92;;;26.40;94.80;;;;;;6190754;23;20073;-83
2022/06/30 06:13:22;;;;;;;9.65;3.92;;;26.50;94.40;;;;;;6216790;23;20004;-84
2022/06/30 06:15:48;;;;;;;6.22;3.88;;;26.60;94.50;;;;;;6192952;23;20016;-83
2022/06/30 06:18:15;;;;;;;6.65;3.50;;;26.50;94.50;;;;;;6216854;23;20088;-82
2022/06/30 06:20:42;;;;;;;7.60;4.22;;;26.50;94.80;;;;;;6220437;23;20493;-83
2022/06/30 06:23:08;;;;;;;5.45;3.47;;;26.40;94.60;;;;;;6210899;23;20371;-82
2022/06/30 06:25:34;;;;;;;5.43;3.55;;;27.10;93.70;;;;;;6209993;23;20008;-83
2022/06/30 06:30:43;;;;;;;6.90;3.47;;;26.70;93.80;;;;;;6215028;23;20015;-82
2022/06/30 06:33:10;;;;;;;7.15;3.80;;;25.90;95.10;;;;;;6220094;23;20032;-82
2022/06/30 06:35:35;;;;;;;7.70;3.72;;;25.70;95.70;;;;;;6219315;23;20086;-83
2022/06/30 06:38:01;;;;;;;5.10;3.58;;;25.70;95.90;;;;;;6220318;23;20004;-82
2022/06/30 06:40:27;;;;;;;7.32;3.63;;;25.80;95.90;;;;;;6219726;23;20020;-81
2022/06/30 06:42:53;;;;;;;5.93;3.67;;;25.90;95.70;;;;;;6221106;23;20009;-81
2022/06/30 06:45:19;;;;;;;7.15;3.38;;;25.60;96.30;;;;;;6218455;23;20399;-82
2022/06/30 06:47:45;;;;;;;5.88;3.10;;;25.60;96.60;;;;;;6219867;23;20458;-82
2022/06/30 06:50:10;;;;;;;5.20;3.17;;;25.40;96.20;;;;;;6194645;23;20363;-82
2022/06/30 06:52:39;;;;;;;4.85;3.20;;;25.10;96.60;;;;;;6194806;23;20088;-83
2022/06/30 06:55:06;;;;;;;4.47;2.88;;;24.90;96.90;;;;;;6194167;23;20023;-80
2022/06/30 06:57:41;;;;;;;6.03;2.90;;;25.10;97.20;;;;;;6220635;23;20027;-82
2022/06/30 07:00:10;;;;;;;7.03;3.13;;;25.30;97.10;;;;;;6220687;23;20024;-82
2022/06/30 07:02:35;;;;;;;7.18;3.33;;;24.80;97.30;;;;;;6194601;23;20015;-84
2022/06/30 07:05:01;;;;;;;5.72;2.95;;;24.80;97.50;;;;;;6220274;23;20418;-82
2022/06/30 07:07:27;;;;;;;8.63;3.20;;;24.70;98.00;;;;;;6219500;23;20035;-82
2022/06/30 07:09:52;;;;;;;4.00;2.75;;;24.90;97.80;;;;;;6217879;23;20032;-80
2022/06/30 07:12:18;;;;;;;7.65;3.70;;;24.90;97.50;;;;;;6213995;23;20039;-80
2022/06/30 07:14:44;;;;;;;5.60;2.83;;;25.00;97.30;;;;;;6213140;23;20113;-81
2022/06/30 07:17:10;;;;;;;8.65;3.78;;;25.00;97.20;;;;;;6220961;23;20035;-79
2022/06/30 07:19:35;;;;;;;7.80;3.28;;;25.10;97.20;;;;;;6216989;23;20421;-79
2022/06/30 07:22:01;;;;;;;5.82;2.78;;;25.20;97.00;;;;;;6219029;23;20083;-79
2022/06/30 07:24:27;;;;;;;10.10;3.88;;;25.30;96.90;;;;;;6217531;23;20001;-81
2022/06/30 07:26:53;;;;;;;7.00;2.85;;;25.30;97.10;;;;;;6197134;23;20004;-80
2022/06/30 07:29:19;;;;;;;5.80;2.83;;;25.30;97.70;;;;;;6223719;23;20095;-80
2022/06/30 07:31:44;;;;;;;7.35;3.05;;;25.60;97.30;;;;;;6225650;23;20005;-81
2022/06/30 07:34:10;;;;;;;6.20;3.38;;;;;;;;;;6199396;23;20084;-81
2022/06/30 07:36:37;;;;;;;6.65;3.20;;;;;;;;;;6229245;23;20004;-81
2022/06/30 07:39:22;;;;;;;5.18;3.15;;;25.60;96.00;;;;;;6228079;23;20008;-81
2022/06/30 07:42:02;;;;;;;7.75;2.83;;;25.80;96.10;;;;;;6237231;23;19999;-80
2022/06/30 07:45:03;;;;;;;6.43;2.65;;;28.40;96.50;;;;;;6180215;23;19992;-80
2022/06/30 07:58:40;;;;;;;3.67;2.40;;;25.80;94.10;;;;;;6176328;23;20133;-81
2022/06/30 08:02:03;;;;;;;6.10;2.50;;;26.10;94.20;;;;;;6174958;23;20002;-80
2022/06/30 08:05:21;;;;;;;7.63;2.10;;;26.20;93.90;;;;;;6063297;23;20064;-80
2022/06/30 08:08:27;;;;;;;4.60;2.28;;;26.40;93.50;;;;;;6118062;23;20006;-80
2022/06/30 08:42:22;;;;;;;4.45;2.53;;;27.80;90.80;;;;;;6084422;23;20059;-82
2022/06/30 08:47:34;;;;;;;4.57;2.00;;;;;;;;;;6105736;23;20041;-83
2022/06/30 08:50:01;;;;;;;4.15;2.30;;;27.90;90.50;;;;;;6187867;23;20064;-81
2022/06/30 08:52:30;;;;;;;3.65;2.30;;;28.20;89.90;;;;;;6204168;23;20061;-83
2022/06/30 08:54:58;;;;;;;4.57;2.30;;;28.20;90.10;;;;;;6202651;23;20008;-82
2022/06/30 08:57:25;;;;;;;4.13;2.20;;;28.40;90.20;;;;;;6229300;23;20237;-82
2022/06/30 08:59:52;;;;;;;5.18;2.75;;;28.60;88.90;;;;;;6199813;23;20001;-82
2022/06/30 09:02:19;;;;;;;3.90;2.30;;;;;;;;;;6203436;23;20001;-83
2022/06/30 09:04:45;;;;;;;2.80;1.70;;;;;;;;;;6206067;23;20008;-83
2022/06/30 09:07:11;;;;;;;8.10;2.85;;;28.50;87.30;;;;;;6229461;23;20031;-84
2022/06/30 09:09:38;;;;;;;4.90;2.40;;;;;;;;;;6201816;23;20063;-83
2022/06/30 09:12:16;;;;;;;6.50;2.60;;;28.60;86.60;;;;;;6232471;23;20024;-83
2022/06/30 09:14:46;;;;;;;4.28;2.35;;;28.60;86.50;;;;;;6205941;23;20020;-83
2022/06/30 09:17:19;;;;;;;4.05;2.15;;;28.70;86.50;;;;;;6205344;23;20012;-82
2022/06/30 09:20:00;;;;;;;5.88;2.47;;;28.80;85.90;;;;;;6206787;23;20572;-83
2022/06/30 09:22:30;;;;;;;6.57;3.03;;;28.80;84.80;;;;;;6204422;23;20016;-82
2022/06/30 09:24:58;;;;;;;3.50;2.45;;;28.80;85.60;;;;;;6199919;23;20008;-83
2022/06/30 09:27:27;;;;;;;6.63;2.50;;;29.00;84.90;;;;;;6226635;23;20073;-83
2022/06/30 09:30:09;;;;;;;4.22;2.33;;;29.10;84.20;;;;;;6225121;23;20379;-82
2022/06/30 09:33:06;;;;;;;2.80;2.03;;;29.20;83.10;;;;;;6197840;23;20008;-83
2022/06/30 09:35:32;;;;;;;5.78;2.00;;;;;;;;;;6200229;23;20004;-82
2022/06/30 09:38:10;;;;;;;4.97;1.98;;;29.20;77.70;;;;;;6200634;23;20370;-82
2022/06/30 09:40:37;;;;;;;4.22;2.40;;;29.30;80.00;;;;;;6197981;23;20040;-83
2022/06/30 09:43:05;;;;;;;3.20;2.08;;;29.30;78.40;;;;;;6199201;23;20005;-83
2022/06/30 09:45:40;;;;;;;4.57;2.20;;;29.30;78.80;;;;;;6224410;23;20012;-83
2022/06/30 09:48:07;;;;;;;5.82;2.20;;;29.40;80.10;;;;;;6225576;23;20008;-83
2022/06/30 09:50:33;;;;;;;5.40;2.03;;;29.60;79.50;;;;;;6227289;23;20027;-83
2022/06/30 09:53:03;;;;;;;4.32;2.17;;;29.70;79.70;;;;;;6225571;23;20012;-83
2022/06/30 09:55:46;;;;;;;4.25;2.10;;;29.80;79.50;;;;;;6202002;23;20007;-82
2022/06/30 09:58:34;;;;;;;3.90;2.20;;;29.50;79.30;;;;;;6202615;23;20001;-83
2022/06/30 10:01:01;;;;;;;2.58;2.10;;;;;;;;;;6201761;23;20091;-82
2022/06/30 10:03:27;;;;;;;5.15;2.30;;;;;;;;;;6226534;23;20001;-83
2022/06/30 10:06:13;;;;;;;4.95;2.30;;;28.50;80.40;;;;;;6225083;23;20107;-83
2022/06/30 10:08:39;;;;;;;4.63;2.17;;;29.30;77.90;;;;;;6200678;23;20009;-82
2022/06/30 10:11:06;;;;;;;5.03;2.10;;;;;;;;;;6226927;23;20039;-84
2022/06/30 10:13:40;;;;;;;4.82;2.15;;;29.60;77.90;;;;;;6200524;23;20004;-84
2022/06/30 10:16:07;;;;;;;3.35;2.08;;;30.20;74.60;;;;;;6228820;23;20012;-83
2022/06/30 10:18:37;;;;;;;3.35;1.85;;;30.30;74.90;;;;;;6201600;23;20005;-82
2022/06/30 10:21:04;;;;;;;2.97;1.80;;;;;;;;;;6228850;23;20023;-84
2022/06/30 10:23:31;;;;;;;3.05;1.92;;;30.30;74.40;;;;;;6200961;23;20071;-84
2022/06/30 10:25:57;;;;;;;3.28;1.83;;;;;;;;;;6225398;23;20358;-83
2022/06/30 10:28:27;;;;;;;2.15;1.60;;;30.60;73.90;;;;;;6200318;23;20043;-82
2022/06/30 10:31:15;;;;;;;3.15;2.03;;;30.60;72.40;;;;;;6199275;23;20005;-82
2022/06/30 10:34:00;;;;;;;4.55;2.22;;;30.60;72.90;;;;;;6226401;23;20055;-82
2022/06/30 10:36:39;;;;;;;5.53;1.90;;;29.50;73.30;;;;;;6227838;23;20009;-83
2022/06/30 10:39:50;;;;;;;3.30;1.92;;;30.00;73.80;;;;;;6201647;23;20019;-83
2022/06/30 10:42:41;;;;;;;4.70;1.98;;;30.20;73.90;;;;;;6185480;23;20012;-83
2022/06/30 10:45:30;;;;;;;7.22;3.05;;;30.70;72.30;;;;;;6227064;23;20019;-83
2022/06/30 10:48:01;;;;;;;5.78;4.15;;;30.70;70.90;;;;;;6187691;23;20005;-83
2022/06/30 10:50:32;;;;;;;3.35;1.80;;;30.80;70.60;;;;;;6202868;23;19992;-82
2022/06/30 10:52:58;;;;;;;3.55;1.58;;;;;;;;;;6202001;23;20012;-82
2022/06/30 10:55:24;;;;;;;2.75;1.70;;;;;;;;;;6226689;23;20003;-83
2022/06/30 10:58:02;;;;;;;3.15;1.55;;;31.00;68.00;;;;;;6227559;23;20053;-83
2022/06/30 11:01:00;;;;;;;2.58;1.95;;;31.10;68.00;;;;;;6199816;23;20012;-83
2022/06/30 11:03:29;;;;;;;3.33;1.80;;;30.90;68.30;;;;;;6200555;23;20031;-83
2022/06/30 11:05:58;;;;;;;3.00;1.83;;;31.00;68.90;;;;;;6228777;23;20199;-83
2022/06/30 11:08:39;;;;;;;3.28;1.65;;;31.10;68.40;;;;;;6228138;23;20045;-84
2022/06/30 11:11:20;;;;;;;4.25;1.80;;;31.30;68.20;;;;;;6200140;23;20015;-82
2022/06/30 11:13:46;;;;;;;2.92;1.80;;;;;;;;;;6200364;23;20016;-83
2022/06/30 11:16:19;;;;;;;3.20;1.80;;;31.60;66.90;;;;;;6200005;23;20000;-83
2022/06/30 11:18:46;;;;;;;5.38;2.22;;;31.50;67.00;;;;;;6204991;23;20005;-83
2022/06/30 11:21:13;;;;;;;3.13;2.03;;;;;;;;;;6240792;23;20015;-83
2022/06/30 11:23:46;;;;;;;3.17;1.80;;;31.50;66.90;;;;;;6215223;23;19997;-83
2022/06/30 11:28:59;;;;;;;3.63;1.75;;;31.60;66.30;;;;;;6241758;23;20080;-84
2022/06/30 11:31:25;;;;;;;2.60;1.50;;;;;;;;;;6215969;23;20023;-84
2022/06/30 11:33:53;;;;;;;2.65;1.50;;;31.50;61.70;;;;;;6239360;23;20009;-83
2022/06/30 11:36:19;;;;;;;2.22;1.60;;;;;;;;;;6231225;23;20032;-83
2022/06/30 11:38:53;;;;;;;3.53;1.58;;;31.80;63.30;;;;;;6206234;23;20011;-83
2022/06/30 11:44:12;;;;;;;3.15;1.90;;;32.00;63.00;;;;;;6231795;23;20015;-82
2022/06/30 11:46:51;;;;;;;3.08;1.88;;;32.10;62.70;;;;;;6203450;23;20071;-83
2022/06/30 11:49:17;;;;;;;2.08;1.77;;;32.10;62.80;;;;;;6202714;23;20071;-83
2022/06/30 11:51:43;;;;;;;3.70;2.55;;;31.70;64.30;;;;;;6226515;23;20026;-83
2022/06/30 11:54:11;;;;;;;6.88;2.15;;;31.70;64.80;;;;;;6228110;23;20011;-83
2022/06/30 11:56:51;;;;;;;3.38;1.70;;;31.90;64.80;;;;;;6199454;23;20000;-83
2022/06/30 11:59:21;;;;;;;3.38;1.85;;;32.00;65.00;;;;;;6201381;23;20012;-83
2022/06/30 12:02:07;;;;;;;3.45;1.75;;;32.10;64.70;;;;;;6227038;23;20003;-83
2022/06/30 12:04:41;;;;;;;2.03;1.60;;;32.20;62.20;;;;;;6199282;23;20043;-84
2022/06/30 12:07:09;;;;;;;2.70;1.67;;;31.60;63.30;;;;;;6227236;23;20004;-82
2022/06/30 12:09:35;;;;;;;2.35;1.50;;;;;;;;;;6227114;23;20078;-84
2022/06/30 12:12:03;;;;;;;3.33;2.05;;;32.10;60.40;;;;;;6225507;23;20001;-82
2022/06/30 12:14:34;;;;;;;2.80;1.60;;;32.00;62.00;;;;;;6199305;23;20360;-83
2022/06/30 12:17:00;;;;;;;3.22;1.73;;;32.30;58.70;;;;;;6199551;23;19997;-84
2022/06/30 12:19:26;;;;;;;1.95;1.42;;;;;;;;;;6199041;23;20481;-83
2022/06/30 12:21:53;;;;;;;3.20;1.33;;;31.80;57.80;;;;;;6198827;23;20031;-83
2022/06/30 12:24:19;;;;;;;3.05;1.55;;;;;;;;;;6226433;23;20001;-84
2022/06/30 12:26:53;;;;;;;2.50;1.60;;;31.70;58.00;;;;;;6225957;23;20424;-83
2022/06/30 12:29:21;;;;;;;3.30;1.50;;;31.70;58.00;;;;;;6225567;23;20308;-83
2022/06/30 12:32:10;;;;;;;2.55;1.63;;;31.80;58.10;;;;;;6224096;23;20007;-84
2022/06/30 12:34:57;;;;;;;2.35;1.48;;;31.90;58.40;;;;;;6195765;23;20009;-82
2022/06/30 12:37:37;;;;;;;4.63;1.50;;;32.10;58.90;;;;;;6200820;23;20031;-82
2022/06/30 12:40:05;;;;;;;2.92;1.70;;;32.20;59.20;;;;;;6199835;23;20019;-82
2022/06/30 12:42:50;;;;;;;3.90;2.03;;;32.50;57.80;;;;;;6198603;23;20004;-82
2022/06/30 12:45:57;;;;;;;4.10;1.50;;;32.50;58.00;;;;;;6174151;23;20036;-83
2022/06/30 12:48:41;;;;;;;3.25;1.85;;;32.50;57.70;;;;;;6224054;23;19997;-84
2022/06/30 12:51:10;;;;;;;4.63;1.40;;;32.70;58.70;;;;;;6198091;23;20004;-82
2022/06/30 12:53:35;;;;;;;3.22;1.58;;;32.80;57.00;;;;;;6197503;23;20009;-82
2022/06/30 12:56:17;;;;;;;2.13;1.40;;;32.90;56.00;;;;;;6223677;23;20394;-82
2022/06/30 12:59:08;;;;;;;2.42;1.40;;;32.90;53.30;;;;;;6198726;23;20507;-83
2022/06/30 13:01:38;;;;;;;2.10;1.30;;;32.70;53.50;;;;;;6196400;23;20030;-84
2022/06/30 13:04:11;;;;;;;2.53;1.50;;;32.70;54.30;;;;;;6198128;23;20005;-83
2022/06/30 13:06:41;;;;;;;5.05;1.73;;;32.70;54.80;;;;;;6224869;23;20000;-82
2022/06/30 13:09:09;;;;;;;3.45;1.50;;;32.90;56.10;;;;;;6222968;23;20005;-81
2022/06/30 13:11:37;;;;;;;3.42;1.40;;;32.80;56.70;;;;;;6196806;23;20035;-81
2022/06/30 13:14:05;;;;;;;2.92;1.58;;;32.90;56.20;;;;;;6196095;23;20005;-81
2022/06/30 13:16:32;;;;;;;1.98;1.60;;;32.60;56.90;;;;;;6195275;23;20015;-84
2022/06/30 13:19:04;;;;;;;2.72;1.60;;;32.50;56.40;;;;;;6198626;23;20016;-83
2022/06/30 13:21:43;;;;;;;2.65;1.70;;;32.50;56.90;;;;;;6225544;23;20008;-84
2022/06/30 13:24:09;;;;;;;1.50;1.40;;;;;;;;;;6227306;23;20035;-84
2022/06/30 13:26:38;;;;;;;3.17;1.77;;;32.60;55.80;;;;;;6197108;23;20000;-84
2022/06/30 13:29:08;;;;;;;5.57;1.52;;;32.70;55.50;;;;;;6222149;23;20004;-83
2022/06/30 13:31:47;;;;;;;1.95;1.73;;;32.70;56.90;;;;;;6223200;23;20001;-84
2022/06/30 13:34:13;;;;;;;4.50;1.73;;;34.50;58.50;;;;;;6214113;23;20026;-83
2022/06/30 13:37:04;;;;;;;2.75;1.73;;;32.90;57.60;;;;;;6202320;23;20005;-84
2022/06/30 13:40:05;;;;;;;4.30;1.45;;;32.80;58.80;;;;;;6224050;23;20008;-84
2022/06/30 13:42:48;;;;;;;2.20;1.50;;;33.00;53.90;;;;;;6199650;23;20012;-84
2022/06/30 13:45:14;;;;;;;2.95;1.45;;;;;;;;;;6201252;23;20467;-84
2022/06/30 13:47:53;;;;;;;6.63;2.05;;;33.20;53.80;;;;;;6200477;23;20032;-83
2022/06/30 13:50:22;;;;;;;2.55;1.30;;;33.40;54.60;;;;;;6201789;23;20008;-84
2022/06/30 13:52:55;;;;;;;4.63;1.75;;;33.30;54.30;;;;;;6228684;23;20489;-84
2022/06/30 13:55:21;;;;;;;2.65;1.50;;;;;;;;;;6201931;23;20119;-84
2022/06/30 13:57:47;;;;;;;3.03;1.50;;;;;;;;;;6226712;23;20000;-84
2022/06/30 14:00:17;;;;;;;3.53;2.00;;;33.20;52.90;;;;;;6198997;23;20016;-83
2022/06/30 14:02:43;;;;;;;2.28;1.60;;;;;;;;;;6199726;23;20004;-82
2022/06/30 14:05:09;;;;;;;3.25;1.70;;;;;;;;;;6226817;23;20029;-84
2022/06/30 14:07:35;;;;;;;2.00;1.52;;;;;;;;;;6200215;23;20179;-82
2022/06/30 14:10:06;;;;;;;2.10;1.67;;;33.10;52.80;;;;;;6199055;23;20462;-83
2022/06/30 14:12:40;;;;;;;3.08;1.60;;;32.90;53.10;;;;;;6199650;23;20435;-83
2022/06/30 14:15:09;;;;;;;4.10;1.77;;;32.90;54.10;;;;;;6199181;23;20083;-81
2022/06/30 14:17:36;;;;;;;3.00;1.65;;;33.00;53.90;;;;;;6198462;23;20000;-83
2022/06/30 14:20:08;;;;;;;2.72;1.52;;;32.90;54.10;;;;;;6198325;23;20322;-82
2022/06/30 14:22:35;;;;;;;3.47;1.90;;;32.80;54.20;;;;;;6226217;23;20039;-83
2022/06/30 14:25:02;;;;;;;4.28;2.00;;;32.70;54.10;;;;;;6226492;23;20079;-83
2022/06/30 14:27:31;;;;;;;3.63;2.00;;;;;;;;;;6200445;23;20011;-81
2022/06/30 14:30:00;;;;;;;3.78;1.90;;;32.50;54.50;;;;;;6226048;23;20020;-82
2022/06/30 14:32:31;;;;;;;3.15;1.80;;;31.80;56.30;;;;;;6199754;23;20011;-82
2022/06/30 14:34:57;;;;;;;6.70;1.88;;;;;;;;;;6223829;23;20051;-83
2022/06/30 14:37:26;;;;;;;2.78;1.63;;;;;;;;;;6198315;23;20004;-83
2022/06/30 14:39:52;;;;;;;5.25;2.30;;;;;;;;;;6197935;23;20009;-83
2022/06/30 14:45:06;;;;;;;4.85;2.17;;;31.30;57.30;;;;;;6225702;23;20436;-82
2022/06/30 14:47:32;;;;;;;7.35;2.15;;;32.20;59.50;;;;;;6226353;23;20063;-83
2022/06/30 14:50:00;;;;;;;4.72;2.03;;;30.90;59.00;;;;;;6225642;23;20366;-83
2022/06/30 14:52:27;;;;;;;3.00;1.92;;;;;;;;;;6222889;23;20062;-83
2022/06/30 14:54:56;;;;;;;5.25;2.50;;;30.70;58.80;;;;;;6196547;23;20004;-83
2022/06/30 14:57:24;;;;;;;3.17;2.15;;;30.60;60.80;;;;;;6224545;23;20023;-83
2022/06/30 14:59:53;;;;;;;5.10;3.35;;;;;;;;;;6221994;23;20032;-83
2022/06/30 15:02:21;;;;;;;4.35;2.42;;;30.50;60.50;;;;;;6226152;23;20004;-83
2022/06/30 15:04:47;;;;;;;4.68;2.40;;;;;;;;;;6225210;23;20028;-83
2022/06/30 15:07:22;;;;;;;9.32;2.90;;;;;;;;;;6201580;23;20040;-83
2022/06/30 15:09:48;;;;;;;11.00;3.03;;;;;;;;;;6195191;23;20058;-83
2022/06/30 15:12:15;;;;;;;12.95;2.97;;;;;;;;;;6192147;23;20009;-82
2022/06/30 15:14:41;;;;;;;13.18;4.78;;;;;;;;;;6221790;23;20009;-81
2022/06/30 15:17:16;;;;;;;11.38;4.35;;;27.60;89.70;;;;;;6218008;23;20471;-81
2022/06/30 15:19:48;;;;;;;10.63;4.25;;;27.10;93.20;;;;;;6190679;23;20024;-81
2022/06/30 15:25:06;;;;;;;6.97;3.20;;;26.80;94.70;;;;;;6216612;23;20058;-82
2022/06/30 15:42:02;;;;;;;9.88;4.40;;;24.50;99.90;;;;;;6143641;23;20013;-81
2022/06/30 15:44:57;;;;;;;16.50;6.25;;;24.40;99.90;;;;;;6140547;23;20002;-80
2022/06/30 15:47:40;;;;;;;9.45;4.00;;;23.60;99.90;;;;;;6139779;23;20018;-82
2022/06/30 15:50:28;;;;;;;;;;;;;;;;;;;;;
2022/06/30 15:53:20;;;;;;;;;;;;;;;;;;;;;
2022/06/30 15:56:24;;;;;;;20.88;12.68;;;22.60;99.90;;;;;;6171952;23;20009;-81
2022/06/30 15:59:05;;;;;;;6.75;3.28;;;22.40;99.90;;;;;;6079800;23;20013;-83
2022/06/30 16:01:54;;;;;;;8.13;3.80;;;21.80;99.90;;;;;;6138494;23;20468;-81
2022/06/30 16:05:03;;;;;;;7.30;3.10;;;21.50;99.90;;;;;;6143641;23;20010;-81
2022/06/30 16:20:47;;;;;;;10.57;3.65;;;22.20;99.90;;;;;;6166695;23;20021;-83
2022/06/30 16:25:54;;;;;;;9.52;2.92;;;;;;;;;;6192968;23;20040;-82
2022/06/30 16:28:22;;;;;;;7.65;3.65;;;22.70;99.90;;;;;;6206529;23;20009;-81
2022/06/30 16:30:48;;;;;;;10.77;6.47;;;22.60;99.90;;;;;;6179950;23;20466;-82
2022/06/30 16:33:13;;;;;;;7.40;3.40;;;22.50;99.90;;;;;;6183679;23;20001;-81
2022/06/30 16:35:39;;;;;;;10.10;3.55;;;22.60;99.90;;;;;;6208941;23;20069;-82
2022/06/30 16:38:05;;;;;;;10.38;2.60;;;22.50;99.90;;;;;;6192953;23;20004;-80
2022/06/30 16:40:32;;;;;;;16.40;3.65;;;22.30;99.90;;;;;;6216972;23;20028;-80
2022/06/30 16:42:58;;;;;;;5.63;2.58;;;22.10;99.90;;;;;;6218353;23;20051;-79
2022/06/30 16:45:23;;;;;;;9.07;2.33;;;22.00;99.90;;;;;;6215951;23;20444;-79
2022/06/30 16:47:49;;;;;;;10.55;2.22;;;21.80;99.90;;;;;;6217147;23;20047;-79
2022/06/30 16:50:18;;;;;;;8.80;2.53;;;21.70;99.90;;;;;;6192158;23;20009;-79
2022/06/30 16:52:45;;;;;;;5.72;1.92;;;21.70;99.90;;;;;;6202563;23;20024;-81
2022/06/30 16:55:11;;;;;;;6.85;1.90;;;21.70;99.90;;;;;;6211779;23;20001;-80
2022/06/30 17:00:13;;;;;;;6.55;2.10;;;21.50;99.90;;;;;;6145089;23;20025;-80
2022/06/30 17:15:35;;;;;;;7.65;1.83;;;21.00;99.90;;;;;;6177503;23;20026;-79
2022/06/30 17:18:01;;;;;;;5.07;1.50;;;;;;;;;;6184049;23;20005;-81
2022/06/30 17:20:28;;;;;;;3.83;1.30;;;21.00;99.90;;;;;;6207536;23;20030;-79
2022/06/30 17:22:54;;;;;;;4.45;1.45;;;;;;;;;;6183183;23;20009;-78
2022/06/30 17:25:23;;;;;;;3.53;1.15;;;21.10;99.90;;;;;;6206703;23;20032;-78
2022/06/30 17:27:49;;;;;;;1.63;0.80;;;;;;;;;;6187426;23;20024;-78
2022/06/30 17:30:15;;;;;;;4.13;1.10;;;;;;;;;;6188421;23;20092;-78
2022/06/30 17:32:44;;;;;;;4.25;1.02;;;;;;;;;;6191216;23;20088;-79
2022/06/30 17:35:10;;;;;;;2.17;1.00;;;20.90;99.90;;;;;;6191920;23;20016;-79
2022/06/30 17:37:36;;;;;;;2.10;0.93;;;;;;;;;;6203312;23;19993;-78
2022/06/30 17:40:04;;;;;;;4.03;0.90;;;20.90;99.90;;;;;;6202889;23;20032;-78
2022/06/30 17:42:30;;;;;;;3.70;0.82;;;;;;;;;;6196212;23;20009;-78
2022/06/30 17:44:57;;;;;;;2.42;0.80;;;20.80;99.90;;;;;;6187158;23;20033;-77
2022/06/30 17:47:25;;;;;;;1.10;0.80;;;;;;;;;;6203080;23;20012;-80
2022/06/30 17:49:51;;;;;;;3.22;1.00;;;;;;;;;;6192359;23;20067;-78
2022/06/30 17:52:17;;;;;;;5.40;1.95;;;;;;;;;;6188163;23;20028;-78
2022/06/30 17:54:43;;;;;;;4.05;1.23;;;20.70;99.90;;;;;;6187864;23;20001;-78
2022/06/30 17:57:09;;;;;;;2.38;1.08;;;20.50;99.90;;;;;;6187788;23;20005;-78
2022/06/30 17:59:35;;;;;;;4.60;1.55;;;20.80;99.90;;;;;;6189463;23;20324;-79
2022/06/30 18:02:01;;;;;;;6.15;3.00;;;19.20;99.90;;;;;;6188350;23;20005;-79
2022/06/30 18:04:27;;;;;;;4.85;2.17;;;20.70;99.90;;;;;;6183996;23;20005;-79
2022/06/30 18:12:21;;;;;;;2.63;0.95;;;20.70;99.90;;;;;;6188270;23;20065;-78
2022/06/30 18:14:47;;;;;;;1.70;1.00;;;20.70;99.90;;;;;;6188405;23;20005;-79
2022/06/30 18:17:13;;;;;;;1.38;0.90;;;20.70;99.90;;;;;;6190743;23;20001;-79
2022/06/30 18:19:39;;;;;;;1.80;0.98;;;20.70;99.90;;;;;;6190508;23;20439;-79
2022/06/30 18:22:05;;;;;;;1.33;0.82;;;20.60;99.90;;;;;;6216009;23;20000;-79
2022/06/30 18:24:31;;;;;;;2.55;0.70;;;20.60;99.90;;;;;;6216185;23;20007;-79
2022/06/30 18:26:58;;;;;;;3.60;1.10;;;20.60;99.60;;;;;;6215132;23;20071;-79
2022/06/30 18:29:23;;;;;;;7.43;4.43;;;20.50;99.90;;;;;;6213783;23;20004;-79
2022/06/30 18:31:49;;;;;;;2.42;1.15;;;20.50;99.90;;;;;;6219011;23;20004;-79
2022/06/30 18:34:15;;;;;;;2.85;1.15;;;20.40;99.90;;;;;;6215899;23;20059;-80
2022/06/30 18:36:43;;;;;;;2.22;1.38;;;20.40;99.90;;;;;;6220226;23;20016;-79